Accueil
METAR-TAF:

METAR-TAF

Aéroports :

St Athan, Pays de Galles

latitude: 51-24N, longitude: 003-26W, altitude: 50 m

Observation

Le bulletin a été fait il y a 32 minutes, à 21:50 UTC
Vent 16 kt de sud/sud-ouest
Température 14°C
Humidité 77%
Pression 984 hPa
Visibilité 10 km ou plus

METAR: EGDX 222150Z AUTO 21016KT 9999 BKN024/// SCT032/// BKN040/// 14/10 Q0984

Heure: 22:22 (22:22 UTC)

Prévision

Le bulletin a été fait il y a 8 heures et 42 minutes, à 13:40 UTC
Prévision valable du 22 à 15 UTC au 22 à 18 UTC
Vent 16 kt de sud
Visibilité 10 km ou plus
Nuages fragmentés à une hauteur de 3000 ft
Temporairement
du 22 à 15 UTC au 22 à 18 UTC
Vent 22 kt de sud avec des rafales jusqu'à 33 kt
Nuages fragmentés à une hauteur de 1800 ft
Probabilité 40% :
Temporairement
du 22 à 15 UTC au 22 à 18 UTC
Visibilité: 6000 m
pluie

TAF: EGDX 221340Z 2215/2218 18016KT 9999 BKN030 TEMPO 2215/2218 19022G33KT BKN018 PROB40 TEMPO 2215/2218 6000 RA

Observations et prévisions météorologiques de plus de 4000 aéroports (messages METAR et TAF).

Les stations disponibles sont représentées par des disques jaunes et rouges sur la carte.

Passer la souris dessus pour voir le nom de la station.

Cliquer dessus pour voir les observations et prévisions météorologiques.

Pour changer de carte: cliquez sur les boutons verts avec une croix noire pour zoomer, sur le bouton vert avec un tiret pour effectuer un zoom arrière, ou sur les flèches vertes pour les cartes adjacentes.


METAR-TAF: